createdAt,value
2022-12-10T00:02:08.836Z,100220.78
2022-12-10T00:04:35.568Z,100222.69
2022-12-10T00:07:02.284Z,100225.38
2022-12-10T00:09:39.411Z,100213.72
2022-12-10T00:12:06.238Z,100212.34
2022-12-10T00:14:32.890Z,100207.16
2022-12-10T00:16:59.555Z,100210.09
2022-12-10T00:19:26.447Z,100212.00
2022-12-10T00:21:53.192Z,100208.69
2022-12-10T00:24:19.813Z,100216.56
2022-12-10T00:26:47.069Z,100220.63
2022-12-10T00:29:14.829Z,100222.28
2022-12-10T00:31:42.190Z,100215.47
2022-12-10T00:34:10.660Z,100224.94
2022-12-10T00:36:49.218Z,100218.13
2022-12-10T00:39:21.719Z,100217.56
2022-12-10T00:41:48.633Z,100227.84
2022-12-10T00:44:16.429Z,100218.63
2022-12-10T00:46:43.365Z,100215.59
2022-12-10T00:49:11.160Z,100222.09
2022-12-10T00:51:39.029Z,100208.22
2022-12-10T00:54:05.792Z,100205.25
2022-12-10T00:56:33.661Z,100206.06
2022-12-10T00:59:01.154Z,100206.84
2022-12-10T01:01:33.315Z,100201.97
2022-12-10T01:04:06.625Z,100210.63
2022-12-10T01:06:36.107Z,100203.00
2022-12-10T01:09:06.231Z,100207.34
2022-12-10T01:11:38.211Z,100211.97
2022-12-10T01:14:07.382Z,100211.66
2022-12-10T01:16:34.651Z,100217.94
2022-12-10T01:19:01.680Z,100218.22
2022-12-10T01:21:30.038Z,100209.78
2022-12-10T01:23:59.413Z,100217.66
2022-12-10T01:26:31.288Z,100219.25
2022-12-10T01:28:58.775Z,100213.81
2022-12-10T01:31:29.365Z,100210.03
2022-12-10T01:33:59.143Z,100188.28
2022-12-10T01:36:35.092Z,100199.16
2022-12-10T01:39:04.367Z,100198.63
2022-12-10T01:41:36.046Z,100205.16
2022-12-10T01:44:25.910Z,100205.16
2022-12-10T01:46:55.238Z,100203.50
2022-12-10T01:49:26.249Z,100194.28
2022-12-10T01:51:56.719Z,100198.09
2022-12-10T01:54:28.366Z,100198.09
2022-12-10T01:57:22.630Z,100194.28
2022-12-10T01:59:57.459Z,100193.19
2022-12-10T02:02:35.819Z,100198.09
2022-12-10T02:05:15.960Z,100198.91
2022-12-10T02:08:17.277Z,100187.75
2022-12-10T02:11:05.854Z,100193.97
2022-12-10T02:13:57.057Z,100199.72
2022-12-10T02:16:39.058Z,100195.34
2022-12-10T02:19:20.750Z,100198.09
2022-12-10T02:21:50.232Z,100200.53
2022-12-10T02:24:24.406Z,100192.06
2022-12-10T02:26:55.926Z,100189.34
2022-12-10T02:29:26.250Z,100186.63
2022-12-10T02:32:15.798Z,100196.13
2022-12-10T02:34:47.782Z,100187.72
2022-12-10T02:37:21.927Z,100182.28
2022-12-10T02:39:53.286Z,100183.88
2022-12-10T02:42:22.513Z,100192.31
2022-12-10T02:44:50.743Z,100186.06
2022-12-10T02:47:19.842Z,100193.16
2022-12-10T02:49:50.971Z,100190.94
2022-12-10T02:52:20.649Z,100194.75
2022-12-10T02:54:50.694Z,100185.50
2022-12-10T02:57:47.945Z,100181.47
2022-12-10T03:02:52.001Z,100185.25
2022-12-10T03:05:27.305Z,100180.63
2022-12-10T03:08:02.333Z,100180.63
2022-12-10T03:10:36.529Z,100181.47
2022-12-10T03:13:08.901Z,100185.25
2022-12-10T03:15:37.268Z,100179.81
2022-12-10T03:18:05.887Z,100184.44
2022-12-10T03:20:39.908Z,100175.19
2022-12-10T03:23:11.084Z,100176.00
2022-12-10T03:25:39.642Z,100180.63
2022-12-10T03:28:08.259Z,100172.78
2022-12-10T03:30:37.849Z,100172.53
2022-12-10T03:33:05.736Z,100170.91
2022-12-10T03:35:33.195Z,100165.75
2022-12-10T03:38:00.117Z,100164.41
2022-12-10T03:40:30.662Z,100158.16
2022-12-10T03:42:57.279Z,100161.97
2022-12-10T03:45:24.044Z,100164.41
2022-12-10T03:47:50.732Z,100159.50
2022-12-10T03:50:17.844Z,100155.97
2022-12-10T03:52:44.595Z,100163.84
2022-12-10T03:55:11.862Z,100161.66
2022-12-10T03:57:38.589Z,100157.03
2022-12-10T04:00:07.159Z,100161.66
2022-12-10T04:02:34.293Z,100161.66
2022-12-10T04:05:00.981Z,100167.59
2022-12-10T04:07:27.618Z,100159.97
2022-12-10T04:09:54.240Z,100169.75
2022-12-10T04:12:22.235Z,100160.78
2022-12-10T04:15:07.235Z,100152.63
2022-12-10T04:17:37.265Z,100149.91
2022-12-10T04:20:04.346Z,100148.00
2022-12-10T04:22:49.863Z,100150.72
2022-12-10T04:25:35.073Z,100144.22
2022-12-10T04:28:01.734Z,100137.66
2022-12-10T04:30:28.340Z,100136.56
2022-12-10T04:32:54.974Z,100137.66
2022-12-10T04:35:21.566Z,100150.16
2022-12-10T04:37:48.170Z,100136.56
2022-12-10T04:40:14.885Z,100139.28
2022-12-10T04:42:41.575Z,100139.00
2022-12-10T04:45:08.569Z,100136.56
2022-12-10T04:47:35.169Z,100136.56
2022-12-10T04:50:01.887Z,100136.56
2022-12-10T04:52:28.553Z,100136.56
2022-12-10T04:54:55.170Z,100127.91
2022-12-10T04:57:21.771Z,100130.63
2022-12-10T04:59:48.414Z,100125.44
2022-12-10T05:02:15.179Z,100120.31
2022-12-10T05:04:41.889Z,100130.13
2022-12-10T05:07:08.562Z,100122.53
2022-12-10T05:09:35.253Z,100123.91
2022-12-10T05:12:01.932Z,100124.53
2022-12-10T05:14:31.246Z,100129.72
2022-12-10T05:16:57.916Z,100130.28
2022-12-10T05:19:27.151Z,100124.31
2022-12-10T05:22:12.510Z,100127.03
2022-12-10T05:24:39.268Z,100123.50
2022-12-10T05:27:06.391Z,100121.59
2022-12-10T05:29:33.961Z,100126.47
2022-12-10T05:32:00.830Z,100125.34
2022-12-10T05:34:27.581Z,100121.56
2022-12-10T05:36:54.481Z,100126.41
2022-12-10T05:39:21.088Z,100126.94
2022-12-10T05:41:47.804Z,100117.69
2022-12-10T05:44:14.437Z,100117.91
2022-12-10T05:46:41.453Z,100123.91
2022-12-10T05:49:08.829Z,100116.53
2022-12-10T05:51:37.489Z,100121.69
2022-12-10T05:54:05.523Z,100117.88
2022-12-10T05:56:32.489Z,100122.22
2022-12-10T05:59:02.063Z,100128.72
2022-12-10T06:01:32.639Z,100121.41
2022-12-10T06:04:01.225Z,100112.16
2022-12-10T06:06:33.370Z,100112.16
2022-12-10T06:09:00.192Z,100116.47
2022-12-10T06:11:28.371Z,100123.53
2022-12-10T06:13:56.956Z,100120.81
2022-12-10T06:16:24.974Z,100116.47
2022-12-10T06:18:53.827Z,100119.19
2022-12-10T06:21:21.302Z,100120.00
2022-12-10T06:23:52.480Z,100124.63
2022-12-10T06:26:23.391Z,100122.22
2022-12-10T06:28:51.100Z,100126.84
2022-12-10T06:31:23.551Z,100125.75
2022-12-10T06:33:50.234Z,100128.47
2022-12-10T06:36:18.029Z,100135.81
2022-12-10T06:38:45.028Z,100133.91
2022-12-10T06:41:14.528Z,100128.47
2022-12-10T06:43:41.578Z,100130.88
2022-12-10T06:46:09.974Z,100119.75
2022-12-10T06:48:37.137Z,100129.22
2022-12-10T06:51:05.436Z,100128.41
2022-12-10T06:53:34.345Z,100124.06
2022-12-10T06:56:01.827Z,100129.50
2022-12-10T06:58:32.900Z,100122.16
2022-12-10T07:01:07.299Z,100126.78
2022-12-10T07:03:34.279Z,100126.25
2022-12-10T07:06:02.732Z,100139.84
2022-12-10T07:08:29.771Z,100132.78
2022-12-10T07:10:57.132Z,100126.25
2022-12-10T07:13:29.775Z,100131.69
2022-12-10T07:15:57.125Z,100131.69
2022-12-10T07:18:23.849Z,100138.22
2022-12-10T07:20:51.551Z,100135.50
2022-12-10T07:23:19.791Z,100135.50
2022-12-10T07:25:46.673Z,100136.31
2022-12-10T07:28:13.518Z,100133.09
2022-12-10T07:30:40.287Z,100120.56
2022-12-10T07:33:06.908Z,100135.28
2022-12-10T07:35:33.510Z,100138.81
2022-12-10T07:38:00.165Z,100137.19
2022-12-10T07:40:26.768Z,100129.03
2022-12-10T07:42:53.390Z,100127.66
2022-12-10T07:45:20.026Z,100118.69
2022-12-10T07:47:46.606Z,100114.34
2022-12-10T07:50:13.229Z,100131.44
2022-12-10T07:52:39.908Z,100136.09
2022-12-10T07:55:06.793Z,100127.66
2022-12-10T07:57:33.450Z,100125.22
2022-12-10T08:00:00.169Z,100125.75
2022-12-10T08:02:26.849Z,100131.19
2022-12-10T08:04:53.466Z,100126.84
2022-12-10T08:07:20.180Z,100118.69
2022-12-10T08:09:46.879Z,100118.97
2022-12-10T08:12:13.563Z,100124.13
2022-12-10T08:14:40.188Z,100121.41
2022-12-10T08:17:06.824Z,100130.66
2022-12-10T08:19:33.598Z,100132.06
2022-12-10T08:22:00.260Z,100131.75
2022-12-10T08:24:27.078Z,100129.56
2022-12-10T08:26:53.679Z,100121.41
2022-12-10T08:29:20.278Z,100137.13
2022-12-10T08:31:46.959Z,100137.97
2022-12-10T08:34:16.540Z,100126.56
2022-12-10T08:36:44.087Z,100133.59
2022-12-10T08:39:17.430Z,100140.44
2022-12-10T08:41:47.482Z,100137.19
2022-12-10T08:44:14.662Z,100137.72
2022-12-10T08:46:42.443Z,100131.44
2022-12-10T08:49:09.105Z,100137.72
2022-12-10T08:51:36.141Z,100142.31
2022-12-10T08:54:03.223Z,100143.16
2022-12-10T08:56:29.930Z,100150.72
2022-12-10T08:58:59.339Z,100142.56
2022-12-10T09:01:26.093Z,100145.59
2022-12-10T09:03:52.840Z,100136.06
2022-12-10T09:06:22.551Z,100143.63
2022-12-10T09:08:49.415Z,100147.69
2022-12-10T09:11:22.015Z,100152.84
2022-12-10T09:13:48.775Z,100151.78
2022-12-10T09:16:15.713Z,100148.78
2022-12-10T09:18:42.474Z,100150.69
2022-12-10T09:21:13.437Z,100153.91
2022-12-10T09:23:40.959Z,100153.91
2022-12-10T09:26:10.253Z,100159.34
2022-12-10T09:28:37.562Z,100152.31
2022-12-10T09:31:14.037Z,100164.00
2022-12-10T09:33:43.759Z,100153.13
2022-12-10T09:36:11.987Z,100160.75
2022-12-10T09:38:41.257Z,100159.94
2022-12-10T09:41:45.080Z,100156.13
2022-12-10T09:44:26.839Z,100167.25
2022-12-10T09:46:57.184Z,100161.81
2022-12-10T09:50:13.182Z,100164.22
2022-12-10T09:52:44.612Z,100156.00
2022-12-10T09:55:20.478Z,100154.41
2022-12-10T09:57:50.216Z,100156.56
2022-12-10T10:00:22.798Z,100165.00
2022-12-10T10:02:51.539Z,100151.63
2022-12-10T10:05:27.919Z,100158.69
2022-12-10T10:07:57.825Z,100163.53
2022-12-10T10:10:33.797Z,100168.16
2022-12-10T10:13:23.476Z,100161.94
2022-12-10T10:15:50.737Z,100166.25
2022-12-10T10:18:34.059Z,100170.31
2022-12-10T10:21:01.662Z,100162.97
2022-12-10T10:23:28.388Z,100172.75
2022-12-10T10:25:55.060Z,100170.56
2022-12-10T10:28:23.884Z,100172.47
2022-12-10T10:30:53.560Z,100178.41
2022-12-10T10:33:20.247Z,100174.63
2022-12-10T10:35:54.943Z,100183.59
2022-12-10T10:38:24.868Z,100170.50
2022-12-10T10:40:55.042Z,100172.66
2022-12-10T10:43:26.562Z,100169.41
2022-12-10T10:46:02.287Z,100180.25
2022-12-10T10:48:30.339Z,100180.75
2022-12-10T10:51:13.039Z,100192.69
2022-12-10T10:53:39.692Z,100182.91
2022-12-10T10:56:09.232Z,100186.72
2022-12-10T10:58:37.128Z,100181.28
2022-12-10T11:01:06.951Z,100186.72
2022-12-10T11:03:36.651Z,100187.78
2022-12-10T11:06:08.548Z,100186.38
2022-12-10T11:08:38.212Z,100184.75
2022-12-10T11:11:21.868Z,100182.78
2022-12-10T11:13:48.645Z,100180.00
2022-12-10T11:16:23.882Z,100179.44
2022-12-10T11:18:57.349Z,100191.38
2022-12-10T11:21:24.463Z,100189.69
2022-12-10T11:23:54.824Z,100183.66
2022-12-10T11:26:58.833Z,100188.81
2022-12-10T11:29:44.083Z,100180.13
2022-12-10T11:32:45.843Z,100178.28
2022-12-10T11:36:01.758Z,100195.44
2022-12-10T11:38:50.114Z,100184.53
2022-12-10T11:41:36.576Z,100184.25
2022-12-10T11:44:22.744Z,100188.03
2022-12-10T11:47:11.005Z,100177.00
2022-12-10T11:49:43.784Z,100182.06
2022-12-10T11:52:38.184Z,100181.22
2022-12-10T11:55:23.821Z,100174.38
2022-12-10T11:58:21.026Z,100163.75
2022-12-10T12:01:06.656Z,100170.25
2022-12-10T12:03:59.623Z,100170.78
2022-12-10T12:06:45.708Z,100167.47
2022-12-10T12:09:22.601Z,100176.72
2022-12-10T12:11:56.324Z,100164.19
2022-12-10T12:14:28.581Z,100161.44
2022-12-10T12:17:25.407Z,100160.25
2022-12-10T12:19:57.674Z,100167.31
2022-12-10T12:22:32.254Z,100161.06
2022-12-10T12:25:08.237Z,100157.00
2022-12-10T12:27:40.918Z,100160.25
2022-12-10T12:30:16.906Z,100162.38
2022-12-10T12:32:55.338Z,100164.53
2022-12-10T12:35:39.777Z,100157.97
2022-12-10T12:38:27.986Z,100162.31
2022-12-10T12:41:15.944Z,100159.06
2022-12-10T12:44:01.962Z,100154.72
2022-12-10T12:46:36.711Z,100169.97
2022-12-10T12:49:24.581Z,100155.84
2022-12-10T12:52:30.599Z,100148.53
2022-12-10T12:55:02.031Z,100152.16
2022-12-10T12:57:36.231Z,100151.78
2022-12-10T13:00:11.084Z,100155.66
2022-12-10T13:02:43.999Z,100156.47
2022-12-10T13:05:32.749Z,100159.38
2022-12-10T13:08:21.253Z,100159.81
2022-12-10T13:11:15.713Z,100165.75
2022-12-10T13:14:05.355Z,100164.66
2022-12-10T13:16:38.936Z,100164.66
2022-12-10T13:19:27.502Z,100166.88
2022-12-10T13:22:38.456Z,100167.75
2022-12-10T13:25:15.024Z,100173.56
2022-12-10T13:27:54.374Z,100166.78
2022-12-10T13:30:30.852Z,100161.34
2022-12-10T13:33:18.117Z,100161.63
2022-12-10T13:35:58.039Z,100159.66
2022-12-10T13:38:27.556Z,100163.63
2022-12-10T13:41:24.387Z,100164.88
2022-12-10T13:44:15.018Z,100161.63
2022-12-10T13:47:05.405Z,100169.53
2022-12-10T13:49:48.952Z,100160.97
2022-12-10T13:52:44.963Z,100154.66
2022-12-10T13:55:29.680Z,100150.91
2022-12-10T13:58:37.645Z,100145.22
2022-12-10T14:01:18.340Z,100157.31
2022-12-10T14:04:10.817Z,100153.84
2022-12-10T14:06:40.729Z,100151.94
2022-12-10T14:09:14.835Z,100149.72
2022-12-10T14:12:06.855Z,100158.47
2022-12-10T14:14:38.360Z,100158.75
2022-12-10T14:17:19.333Z,100160.97
2022-12-10T14:19:51.351Z,100169.66
2022-12-10T14:22:23.949Z,100157.97
2022-12-10T14:24:52.329Z,100158.03
2022-12-10T14:27:25.112Z,100147.50
2022-12-10T14:29:55.647Z,100152.19
2022-12-10T14:32:35.380Z,100159.63
2022-12-10T14:35:05.436Z,100163.22
2022-12-10T14:37:34.785Z,100160.81
2022-12-10T14:40:01.901Z,100164.63
2022-12-10T14:42:28.983Z,100159.16
2022-12-10T14:45:05.504Z,100173.88
2022-12-10T14:47:45.181Z,100171.06
2022-12-10T14:50:16.378Z,100166.19
2022-12-10T14:52:54.022Z,100163.53
2022-12-10T14:55:24.182Z,100177.13
2022-12-10T14:57:58.280Z,100170.13
2022-12-10T15:00:25.032Z,100170.63
2022-12-10T15:02:59.331Z,100164.69
2022-12-10T15:05:33.737Z,100157.91
2022-12-10T15:08:05.461Z,100169.59
2022-12-10T15:10:41.135Z,100178.28
2022-12-10T15:13:18.430Z,100182.09
2022-12-10T15:15:49.720Z,100190.31
2022-12-10T15:18:18.416Z,100173.53
2022-12-10T15:20:51.382Z,100174.69
2022-12-10T15:23:32.559Z,100173.06
2022-12-10T15:26:11.778Z,100179.31
2022-12-10T15:28:41.183Z,100181.75
2022-12-10T15:31:26.712Z,100182.53
2022-12-10T15:34:10.111Z,100171.66
2022-12-10T15:36:55.344Z,100184.47
2022-12-10T15:39:44.273Z,100182.41
2022-12-10T15:42:27.935Z,100189.50
2022-12-10T15:45:00.379Z,100184.06
2022-12-10T15:47:27.703Z,100181.91
2022-12-10T15:49:56.914Z,100180.81
2022-12-10T15:52:29.613Z,100185.44
2022-12-10T15:54:58.039Z,100193.59
2022-12-10T15:57:26.530Z,100183.84
2022-12-10T15:59:56.150Z,100189.28
2022-12-10T16:02:26.415Z,100196.63
2022-12-10T16:04:54.335Z,100194.72
2022-12-10T16:07:21.005Z,100191.69
2022-12-10T16:09:48.067Z,100185.97
2022-12-10T16:12:15.871Z,100194.38
2022-12-10T16:14:49.854Z,100185.13
2022-12-10T16:17:17.152Z,100189.44
2022-12-10T16:19:44.540Z,100190.56
2022-12-10T16:22:11.226Z,100188.09
2022-12-10T16:24:42.111Z,100186.72
2022-12-10T16:27:16.084Z,100189.16
2022-12-10T16:29:44.057Z,100189.75
2022-12-10T16:32:12.122Z,100194.38
2022-12-10T16:34:40.118Z,100190.00
2022-12-10T16:37:07.226Z,100191.94
2022-12-10T16:39:34.776Z,100196.31
2022-12-10T16:42:01.914Z,100198.78
2022-12-10T16:44:28.582Z,100195.75
2022-12-10T16:46:55.210Z,100200.38
2022-12-10T16:49:21.776Z,100203.63
2022-12-10T16:51:48.379Z,100205.25
2022-12-10T16:54:14.981Z,100198.72
2022-12-10T16:56:43.080Z,100199.28
2022-12-10T16:59:11.539Z,100200.88
2022-12-10T17:01:38.405Z,100207.44
2022-12-10T17:04:05.236Z,100198.47
2022-12-10T17:06:31.980Z,100195.19
2022-12-10T17:08:58.562Z,100210.69
2022-12-10T17:11:46.749Z,100201.44
2022-12-10T17:14:22.715Z,100205.25
2022-12-10T17:16:50.315Z,100206.63
2022-12-10T17:19:17.643Z,100203.63
2022-12-10T17:21:44.350Z,100206.56
2022-12-10T17:24:11.080Z,100201.94
2022-12-10T17:26:42.926Z,100207.91
2022-12-10T17:29:40.511Z,100222.03
2022-12-10T17:32:12.879Z,100213.09
2022-12-10T17:34:39.778Z,100209.53
2022-12-10T17:37:16.142Z,100222.03
2022-12-10T17:39:43.193Z,100205.72
2022-12-10T17:42:11.090Z,100198.66
2022-12-10T17:44:38.340Z,100197.53
2022-12-10T17:47:24.030Z,100211.16
2022-12-10T17:49:53.367Z,100201.91
2022-12-10T17:52:21.160Z,100201.09
2022-12-10T17:54:47.871Z,100197.28
2022-12-10T17:57:19.539Z,100199.69
2022-12-10T17:59:46.358Z,100195.38
2022-12-10T18:02:13.614Z,100196.47
2022-12-10T18:04:41.309Z,100189.38
2022-12-10T18:07:16.757Z,100195.63
2022-12-10T18:09:44.842Z,100194.81
2022-12-10T18:12:13.176Z,100187.78
2022-12-10T18:14:41.805Z,100195.94
2022-12-10T18:17:13.646Z,100196.50
2022-12-10T18:19:44.337Z,100209.53
2022-12-10T18:22:11.462Z,100205.19
2022-12-10T18:24:38.445Z,100201.91
2022-12-10T18:27:05.836Z,100200.00
2022-12-10T18:29:32.684Z,100198.09
2022-12-10T18:32:01.334Z,100195.38
2022-12-10T18:34:28.321Z,100201.31
2022-12-10T18:36:55.290Z,100201.03
2022-12-10T18:39:32.638Z,100194.50
2022-12-10T18:41:59.450Z,100196.91
2022-12-10T18:44:29.523Z,100198.53
2022-12-10T18:46:58.440Z,100198.03
2022-12-10T18:49:25.418Z,100183.59
2022-12-10T18:51:52.553Z,100194.78
2022-12-10T18:54:19.659Z,100193.69
2022-12-10T18:57:03.302Z,100190.69
2022-12-10T18:59:33.596Z,100199.63
2022-12-10T19:02:00.441Z,100195.81
2022-12-10T19:04:27.433Z,100186.56
2022-12-10T19:06:54.789Z,100193.09
2022-12-10T19:09:21.577Z,100187.66
2022-12-10T19:11:52.000Z,100180.00
2022-12-10T19:14:23.871Z,100187.34
2022-12-10T19:16:51.188Z,100185.75
2022-12-10T19:19:18.736Z,100187.34
2022-12-10T19:21:47.080Z,100191.72
2022-12-10T19:24:14.064Z,100185.44
2022-12-10T19:26:43.068Z,100194.13
2022-12-10T19:29:19.873Z,100195.75
2022-12-10T19:31:47.405Z,100185.69
2022-12-10T19:34:15.869Z,100184.06
2022-12-10T19:36:43.835Z,100183.25
2022-12-10T19:39:22.758Z,100184.38
2022-12-10T19:41:50.648Z,100188.69
2022-12-10T19:44:17.405Z,100194.72
2022-12-10T19:46:44.921Z,100189.28
2022-12-10T19:49:14.219Z,100201.78
2022-12-10T19:51:41.721Z,100179.19
2022-12-10T19:54:12.081Z,100189.81
2022-12-10T19:56:39.367Z,100203.94
2022-12-10T19:59:17.800Z,100204.44
2022-12-10T20:01:45.473Z,100200.63
2022-12-10T20:04:14.997Z,100197.34
2022-12-10T20:06:43.835Z,100200.06
2022-12-10T20:09:21.516Z,100201.66
2022-12-10T20:11:48.660Z,100199.47
2022-12-10T20:14:16.137Z,100203.81
2022-12-10T20:16:44.172Z,100202.72
2022-12-10T20:19:13.052Z,100202.13
2022-12-10T20:21:42.481Z,100203.75
2022-12-10T20:24:09.446Z,100201.84
2022-12-10T20:26:39.359Z,100192.84
2022-12-10T20:29:35.212Z,100185.00
2022-12-10T20:32:01.965Z,100186.91
2022-12-10T20:34:28.648Z,100179.53
2022-12-10T20:36:55.540Z,100180.38
2022-12-10T20:39:31.092Z,100187.41
2022-12-10T20:41:59.282Z,100187.72
2022-12-10T20:44:27.598Z,100190.44
2022-12-10T20:46:55.925Z,100188.22
2022-12-10T20:49:23.997Z,100200.44
2022-12-10T20:51:51.559Z,100194.44
2022-12-10T20:54:18.286Z,100199.88
2022-12-10T20:56:45.025Z,100208.63
2022-12-10T20:59:14.423Z,100199.34
2022-12-10T21:01:41.181Z,100198.25
2022-12-10T21:04:08.116Z,100204.81
2022-12-10T21:06:34.771Z,100202.59
2022-12-10T21:09:01.964Z,100205.81
2022-12-10T21:11:28.695Z,100196.56
2022-12-10T21:13:55.381Z,100193.34
2022-12-10T21:16:23.945Z,100193.59
2022-12-10T21:18:51.073Z,100206.41
2022-12-10T21:21:19.826Z,100211.06
2022-12-10T21:23:46.791Z,100210.25
2022-12-10T21:26:15.458Z,100211.34
2022-12-10T21:28:43.527Z,100213.78
2022-12-10T21:31:19.718Z,100222.75
2022-12-10T21:33:46.825Z,100223.56
2022-12-10T21:36:15.531Z,100218.94
2022-12-10T21:38:42.246Z,100216.19
2022-12-10T21:41:29.223Z,100219.44
2022-12-10T21:43:56.744Z,100214.81
2022-12-10T21:46:23.641Z,100222.16
2022-12-10T21:48:50.878Z,100222.16
2022-12-10T21:51:17.669Z,100218.66
2022-12-10T21:53:44.363Z,100221.38
2022-12-10T21:56:12.920Z,100221.66
2022-12-10T21:58:40.172Z,100226.00
2022-12-10T22:01:07.750Z,100220.56
2022-12-10T22:03:34.428Z,100217.84
2022-12-10T22:06:01.083Z,100213.47
2022-12-10T22:08:27.791Z,100215.13
2022-12-10T22:10:55.482Z,100204.22
2022-12-10T22:13:22.199Z,100214.00
2022-12-10T22:15:49.067Z,100205.81
2022-12-10T22:18:15.996Z,100212.91
2022-12-10T22:20:43.676Z,100205.81
2022-12-10T22:23:15.203Z,100201.19
2022-12-10T22:25:43.479Z,100202.84
2022-12-10T22:28:10.717Z,100207.47
2022-12-10T22:30:40.608Z,100198.47
2022-12-10T22:33:08.357Z,100205.81
2022-12-10T22:35:36.170Z,100200.38
2022-12-10T22:38:03.679Z,100197.66
2022-12-10T22:40:30.311Z,100205.03
2022-12-10T22:43:06.586Z,100196.06
2022-12-10T22:45:44.056Z,100185.22
2022-12-10T22:48:11.135Z,100201.56
2022-12-10T22:50:40.372Z,100209.19
2022-12-10T22:53:07.033Z,100200.25
2022-12-10T22:55:33.687Z,100198.91
2022-12-10T22:58:00.426Z,100207.06
2022-12-10T23:00:27.500Z,100212.22
2022-12-10T23:02:54.218Z,100214.41
2022-12-10T23:05:20.947Z,100214.41
2022-12-10T23:07:47.901Z,100213.59
2022-12-10T23:10:14.918Z,100211.69
2022-12-10T23:13:00.182Z,100228.53
2022-12-10T23:15:27.654Z,100210.31
2022-12-10T23:17:54.314Z,100216.28
2022-12-10T23:20:21.049Z,100206.47
2022-12-10T23:22:47.693Z,100201.03
2022-12-10T23:25:15.598Z,100207.59
2022-12-10T23:27:42.304Z,100214.13
2022-12-10T23:30:11.637Z,100214.63
2022-12-10T23:32:38.493Z,100207.28
2022-12-10T23:35:05.401Z,100212.47
2022-12-10T23:37:32.157Z,100224.94
2022-12-10T23:39:59.905Z,100224.94
2022-12-10T23:42:27.878Z,100215.69
2022-12-10T23:44:54.773Z,100221.66
2022-12-10T23:47:21.472Z,100224.38
2022-12-10T23:49:48.207Z,100225.47
2022-12-10T23:52:15.302Z,100223.28
2022-12-10T23:54:42.400Z,100223.28
2022-12-10T23:57:09.094Z,100222.16
2022-12-10T23:59:35.764Z,100226.00
